Time;durP1;ratioP1;P1;durP2;ratioP2;P2;SDS_P1;SDS_P2;PMS_P1;PMS_P2;Temp;Humidity;BMP_temperature;BMP_pressure;BME280_temperature;BME280_humidity;BME280_pressure;Samples;Min_cycle;Max_cycle;Signal;HPM_P1;HPM_P2
2020/12/09 00:00:15;;;;;;;25.30;15.25;;;4.50;99.90;;;;;;5065376;28;20032;-59
2020/12/09 00:02:42;;;;;;;27.13;16.10;;;4.50;99.90;;;;;;5067707;28;20106;-61
2020/12/09 00:05:10;;;;;;;25.38;14.98;;;4.50;99.90;;;;;;5058303;28;20033;-60
2020/12/09 00:07:37;;;;;;;34.40;17.30;;;4.50;99.90;;;;;;5053826;28;20056;-59
2020/12/09 00:10:06;;;;;;;29.25;15.50;;;4.50;99.90;;;;;;5062319;28;20028;-59
2020/12/09 00:12:32;;;;;;;24.27;14.70;;;4.60;99.90;;;;;;5093187;28;20408;-60
2020/12/09 00:14:59;;;;;;;22.92;14.52;;;4.60;99.90;;;;;;5073937;28;20063;-60
2020/12/09 00:17:25;;;;;;;25.67;14.27;;;4.60;99.90;;;;;;5072946;28;20031;-60
2020/12/09 00:19:50;;;;;;;24.65;15.57;;;4.60;99.90;;;;;;5076443;28;20028;-61
2020/12/09 00:22:16;;;;;;;24.83;15.07;;;4.60;99.90;;;;;;5080780;28;20070;-59
2020/12/09 00:24:42;;;;;;;33.03;18.15;;;4.60;99.90;;;;;;5078326;28;20093;-60
2020/12/09 00:27:08;;;;;;;23.83;15.70;;;4.50;99.90;;;;;;5059974;28;20035;-60
2020/12/09 00:29:34;;;;;;;22.52;13.82;;;4.60;99.90;;;;;;5071892;28;20028;-60
2020/12/09 00:31:59;;;;;;;22.10;13.68;;;4.70;99.90;;;;;;5085936;28;20470;-61
2020/12/09 00:34:25;;;;;;;17.65;12.73;;;4.60;99.90;;;;;;5079578;28;20478;-60
2020/12/09 00:36:51;;;;;;;27.17;15.13;;;4.70;99.90;;;;;;5052133;28;20421;-60
2020/12/09 00:39:16;;;;;;;20.90;13.68;;;4.70;99.90;;;;;;5067175;28;20036;-60
2020/12/09 00:41:42;;;;;;;18.85;13.00;;;4.60;99.90;;;;;;5052193;28;20025;-60
2020/12/09 00:44:08;;;;;;;19.25;12.52;;;4.70;99.90;;;;;;5063195;28;20187;-60
2020/12/09 00:46:33;;;;;;;18.65;12.68;;;4.70;99.90;;;;;;5072202;28;20024;-61
2020/12/09 00:48:59;;;;;;;20.63;13.63;;;4.80;99.90;;;;;;5085018;28;20052;-61
2020/12/09 00:51:25;;;;;;;17.52;11.70;;;4.70;99.90;;;;;;5081186;28;20458;-60
2020/12/09 00:53:52;;;;;;;18.98;13.02;;;4.70;99.90;;;;;;5070417;28;20032;-61
2020/12/09 00:56:18;;;;;;;19.77;11.90;;;4.80;99.90;;;;;;5087219;28;20478;-61
2020/12/09 00:58:44;;;;;;;17.52;11.48;;;4.80;99.90;;;;;;5054246;28;20044;-61
2020/12/09 01:01:11;;;;;;;20.08;13.13;;;4.80;99.90;;;;;;5052865;28;20031;-62
2020/12/09 01:03:37;;;;;;;17.85;12.00;;;4.80;99.90;;;;;;5061735;28;20064;-61
2020/12/09 01:06:04;;;;;;;18.73;12.70;;;4.90;99.90;;;;;;5088600;28;20027;-61
2020/12/09 01:08:30;;;;;;;20.27;11.93;;;4.80;99.90;;;;;;5074091;28;20038;-61
2020/12/09 01:10:57;;;;;;;18.35;11.35;;;4.80;99.90;;;;;;5053641;28;20052;-62
2020/12/09 01:13:22;;;;;;;19.05;12.95;;;4.80;99.90;;;;;;5076654;28;20446;-61
2020/12/09 01:15:48;;;;;;;18.00;12.02;;;4.90;99.90;;;;;;5091442;28;20106;-60
2020/12/09 01:18:14;;;;;;;20.60;12.25;;;4.90;99.90;;;;;;5081515;28;20040;-60
2020/12/09 01:20:40;;;;;;;19.73;12.85;;;4.90;99.90;;;;;;5079347;28;20032;-62
2020/12/09 01:23:06;;;;;;;16.60;11.88;;;4.80;99.90;;;;;;5066758;28;20037;-61
2020/12/09 01:25:32;;;;;;;18.30;11.98;;;4.90;99.90;;;;;;5058280;28;20032;-60
2020/12/09 01:27:59;;;;;;;17.88;12.57;;;4.90;99.90;;;;;;5071067;28;20028;-60
2020/12/09 01:30:25;;;;;;;21.98;12.82;;;4.90;99.90;;;;;;5068392;28;20063;-60
2020/12/09 01:32:51;;;;;;;22.02;12.20;;;4.90;99.90;;;;;;5058875;28;20111;-60
2020/12/09 01:35:17;;;;;;;20.48;13.10;;;4.90;99.90;;;;;;5079319;28;20033;-59
2020/12/09 01:37:42;;;;;;;18.02;11.98;;;5.00;99.90;;;;;;5071094;28;20044;-61
2020/12/09 01:40:08;;;;;;;19.58;12.20;;;5.00;99.90;;;;;;5079119;28;20430;-60
2020/12/09 01:42:34;;;;;;;19.92;12.13;;;5.00;99.90;;;;;;5077969;28;20036;-59
2020/12/09 01:45:00;;;;;;;21.85;14.75;;;5.00;99.90;;;;;;5077011;28;20043;-59
2020/12/09 01:47:25;;;;;;;19.50;11.85;;;5.00;99.90;;;;;;5075027;28;20032;-60
2020/12/09 01:49:52;;;;;;;17.27;11.63;;;5.10;99.90;;;;;;5077085;28;20032;-60
2020/12/09 01:52:19;;;;;;;22.52;13.48;;;5.00;99.90;;;;;;5074319;28;20033;-60
2020/12/09 01:54:45;;;;;;;21.80;12.35;;;5.00;99.90;;;;;;5082900;28;20025;-59
2020/12/09 01:57:12;;;;;;;20.05;11.95;;;5.00;99.90;;;;;;5055672;28;20374;-60
2020/12/09 01:59:39;;;;;;;28.17;16.98;;;5.10;99.90;;;;;;5083345;28;20539;-59
2020/12/09 02:02:07;;;;;;;18.23;11.32;;;5.10;99.90;;;;;;5074638;28;20064;-60
2020/12/09 02:04:34;;;;;;;23.60;12.73;;;5.10;99.90;;;;;;5085504;28;20114;-60
2020/12/09 02:07:00;;;;;;;16.25;10.40;;;5.20;99.90;;;;;;5073834;28;20024;-60
2020/12/09 02:09:26;;;;;;;20.63;11.00;;;5.20;99.90;;;;;;5088540;28;20035;-60
2020/12/09 02:11:53;;;;;;;18.30;9.75;;;5.20;99.90;;;;;;5079224;28;20044;-60
2020/12/09 02:14:19;;;;;;;21.20;10.82;;;5.20;99.90;;;;;;5095416;28;20024;-60
2020/12/09 02:16:49;;;;;;;16.80;10.75;;;5.20;99.90;;;;;;5066996;28;20041;-60
2020/12/09 02:19:15;;;;;;;18.30;10.75;;;5.20;99.90;;;;;;5061361;28;20393;-61
2020/12/09 02:21:41;;;;;;;16.13;10.48;;;5.20;99.90;;;;;;5079843;28;20040;-60
2020/12/09 02:24:06;;;;;;;16.20;9.60;;;5.30;99.90;;;;;;5093969;28;20024;-60
2020/12/09 02:26:32;;;;;;;19.73;10.13;;;5.30;99.90;;;;;;5058688;28;20032;-60
2020/12/09 02:28:58;;;;;;;17.67;9.90;;;5.40;99.90;;;;;;5072511;28;20028;-61
2020/12/09 02:31:23;;;;;;;24.33;12.02;;;5.40;99.90;;;;;;5059596;28;20037;-60
2020/12/09 02:33:49;;;;;;;19.70;11.13;;;5.40;99.90;;;;;;5084857;28;20031;-60
2020/12/09 02:36:15;;;;;;;29.27;11.18;;;5.20;99.90;;;;;;5076954;28;20471;-60
2020/12/09 02:38:41;;;;;;;19.27;11.30;;;5.30;99.90;;;;;;5080876;28;20454;-61
2020/12/09 02:41:07;;;;;;;20.80;10.60;;;5.30;99.90;;;;;;5082657;28;20029;-61
2020/12/09 02:43:33;;;;;;;23.42;9.90;;;5.30;99.90;;;;;;5085959;28;20032;-60
2020/12/09 02:45:59;;;;;;;21.50;9.70;;;5.40;99.90;;;;;;5066571;28;20036;-61
2020/12/09 02:48:24;;;;;;;16.23;9.07;;;5.30;99.90;;;;;;5075834;28;20055;-61
2020/12/09 02:50:50;;;;;;;16.05;8.73;;;5.40;99.90;;;;;;5087171;28;20043;-61
2020/12/09 02:53:16;;;;;;;16.27;8.70;;;5.40;99.90;;;;;;5094853;28;20028;-60
2020/12/09 02:55:41;;;;;;;19.52;8.80;;;5.50;99.90;;;;;;5066589;28;20393;-60
2020/12/09 02:58:07;;;;;;;25.20;10.75;;;5.40;99.90;;;;;;5074344;28;20044;-59
2020/12/09 03:00:33;;;;;;;19.80;7.68;;;5.40;99.90;;;;;;5085356;28;20035;-61
2020/12/09 03:02:58;;;;;;;20.27;8.65;;;5.40;99.90;;;;;;5079133;28;20107;-61
2020/12/09 03:05:24;;;;;;;32.13;10.98;;;5.40;99.90;;;;;;5092158;28;20029;-60
2020/12/09 03:07:50;;;;;;;21.92;8.35;;;5.40;99.90;;;;;;5078387;28;20024;-60
2020/12/09 03:10:15;;;;;;;16.83;7.38;;;5.40;99.90;;;;;;5092753;28;20055;-60
2020/12/09 03:12:41;;;;;;;18.20;6.30;;;5.40;99.90;;;;;;5067343;28;20042;-60
2020/12/09 03:15:07;;;;;;;15.68;6.45;;;5.50;99.90;;;;;;5073469;28;20029;-60
2020/12/09 03:17:32;;;;;;;14.63;5.47;;;5.50;99.90;;;;;;5072926;28;20050;-61
2020/12/09 03:19:58;;;;;;;17.27;6.03;;;5.50;99.90;;;;;;5073611;28;20033;-61
2020/12/09 03:22:24;;;;;;;17.90;4.93;;;5.50;99.90;;;;;;5066758;28;20513;-61
2020/12/09 03:24:49;;;;;;;18.98;3.88;;;5.60;99.90;;;;;;5071188;28;20033;-60
2020/12/09 03:27:15;;;;;;;25.38;4.03;;;5.70;99.90;;;;;;5087386;28;20028;-61
2020/12/09 03:29:41;;;;;;;17.83;3.40;;;5.80;99.90;;;;;;5085338;28;20135;-60
2020/12/09 03:32:07;;;;;;;12.80;3.08;;;5.90;99.90;;;;;;5070994;28;20024;-61
2020/12/09 03:34:32;;;;;;;17.33;3.30;;;6.00;99.90;;;;;;5060916;28;20513;-59
2020/12/09 03:36:58;;;;;;;16.77;3.45;;;6.00;99.90;;;;;;5052718;28;20033;-60
2020/12/09 03:39:24;;;;;;;20.05;3.20;;;6.00;99.90;;;;;;5089020;28;20020;-60
2020/12/09 03:41:49;;;;;;;15.55;3.85;;;6.00;99.90;;;;;;5081902;28;20108;-60
2020/12/09 03:44:15;;;;;;;19.90;3.58;;;6.00;99.90;;;;;;5075330;28;20029;-60
2020/12/09 03:46:41;;;;;;;17.08;3.60;;;6.00;99.90;;;;;;5084195;28;20025;-60
2020/12/09 03:49:06;;;;;;;16.70;3.30;;;6.00;99.90;;;;;;5089434;28;20028;-59
2020/12/09 03:51:32;;;;;;;18.25;4.43;;;6.00;99.90;;;;;;5081894;28;20028;-60
2020/12/09 03:53:58;;;;;;;19.45;4.05;;;6.00;99.90;;;;;;5070705;28;20031;-61
2020/12/09 03:56:24;;;;;;;15.57;3.22;;;6.00;99.90;;;;;;5070912;28;20064;-60
2020/12/09 03:58:49;;;;;;;16.05;3.22;;;6.00;99.90;;;;;;5086812;28;20039;-61
2020/12/09 04:01:15;;;;;;;14.23;3.40;;;6.00;99.90;;;;;;5087401;28;20044;-60
2020/12/09 04:03:41;;;;;;;18.58;3.65;;;6.10;99.90;;;;;;5077930;28;20028;-61
2020/12/09 04:06:06;;;;;;;15.63;4.15;;;6.10;99.90;;;;;;5089851;28;20024;-61
2020/12/09 04:08:32;;;;;;;28.17;4.88;;;6.10;99.90;;;;;;5077242;28;20382;-61
2020/12/09 04:10:57;;;;;;;22.10;3.72;;;6.00;99.90;;;;;;5071520;28;20084;-61
2020/12/09 04:13:23;;;;;;;25.42;3.97;;;6.10;99.90;;;;;;5082595;28;20035;-59
2020/12/09 04:15:49;;;;;;;22.42;3.38;;;6.10;99.90;;;;;;5092544;28;20452;-61
2020/12/09 04:18:14;;;;;;;23.50;3.80;;;6.00;99.90;;;;;;5083563;28;20043;-59
2020/12/09 04:20:40;;;;;;;19.58;3.55;;;6.00;99.90;;;;;;5092195;28;20032;-61
2020/12/09 04:23:06;;;;;;;18.55;3.58;;;6.10;99.90;;;;;;5077902;28;20151;-60
2020/12/09 04:25:32;;;;;;;26.92;4.22;;;6.10;99.90;;;;;;5083528;28;20032;-61
2020/12/09 04:27:57;;;;;;;17.75;3.92;;;6.00;99.90;;;;;;5071759;28;20024;-59
2020/12/09 04:30:23;;;;;;;18.02;4.05;;;6.10;99.90;;;;;;5091222;28;20043;-60
2020/12/09 04:32:49;;;;;;;22.42;4.00;;;6.10;99.90;;;;;;5090312;28;20036;-61
2020/12/09 04:35:14;;;;;;;25.60;4.57;;;6.10;99.90;;;;;;5071903;28;20070;-60
2020/12/09 04:37:41;;;;;;;16.05;3.85;;;6.10;99.90;;;;;;5071756;28;20037;-60
2020/12/09 04:40:07;;;;;;;22.08;3.67;;;6.10;99.90;;;;;;5072329;28;20032;-60
2020/12/09 04:42:33;;;;;;;25.25;4.20;;;6.10;99.90;;;;;;5065481;28;20104;-60
2020/12/09 04:44:59;;;;;;;21.30;3.58;;;6.10;99.90;;;;;;5068665;28;20112;-60
2020/12/09 04:47:28;;;;;;;16.92;3.47;;;6.20;99.90;;;;;;5070501;28;20053;-61
2020/12/09 04:50:09;;;;;;;20.42;3.88;;;6.10;99.90;;;;;;5072148;28;20082;-60
2020/12/09 04:53:18;;;;;;;17.70;3.88;;;6.10;99.90;;;;;;5072712;28;20040;-60
2020/12/09 04:55:55;;;;;;;20.05;3.88;;;6.10;99.90;;;;;;5051063;28;20395;-60
2020/12/09 04:58:38;;;;;;;22.52;4.30;;;6.10;99.90;;;;;;5068526;28;20040;-60
2020/12/09 05:01:09;;;;;;;22.33;3.90;;;6.10;99.90;;;;;;5050958;28;20486;-60
2020/12/09 05:03:41;;;;;;;20.27;4.07;;;6.20;99.90;;;;;;5068665;28;20025;-61
2020/12/09 05:06:08;;;;;;;18.90;3.63;;;6.10;99.90;;;;;;5070047;28;20032;-61
2020/12/09 05:08:35;;;;;;;13.52;3.17;;;6.10;99.90;;;;;;5070200;28;20029;-59
2020/12/09 05:11:06;;;;;;;24.13;3.78;;;6.10;99.90;;;;;;5050812;28;20049;-60
2020/12/09 05:13:35;;;;;;;20.17;3.75;;;6.20;99.90;;;;;;5055053;28;20486;-61
2020/12/09 05:16:02;;;;;;;17.45;3.90;;;6.10;99.90;;;;;;5050725;28;20033;-59
2020/12/09 05:18:42;;;;;;;24.23;4.55;;;6.10;99.90;;;;;;5069860;28;20086;-60
2020/12/09 05:21:26;;;;;;;23.92;4.25;;;6.10;99.90;;;;;;5071114;28;20056;-59
2020/12/09 05:23:54;;;;;;;18.75;3.30;;;6.20;99.90;;;;;;5056171;28;20375;-61
2020/12/09 05:26:31;;;;;;;22.20;4.25;;;6.10;99.90;;;;;;5088330;28;20043;-60
2020/12/09 05:29:07;;;;;;;24.27;3.72;;;6.10;99.90;;;;;;5073262;28;20044;-61
2020/12/09 05:31:35;;;;;;;22.48;3.83;;;6.10;99.90;;;;;;5071851;28;20111;-61
2020/12/09 05:34:01;;;;;;;16.17;3.78;;;6.10;99.90;;;;;;5054673;28;20482;-61
2020/12/09 05:36:27;;;;;;;19.10;4.18;;;6.10;99.90;;;;;;5054397;28;20032;-59
2020/12/09 05:39:04;;;;;;;23.10;4.22;;;6.10;99.90;;;;;;5075399;28;20072;-60
2020/12/09 05:41:34;;;;;;;20.20;4.00;;;6.20;99.90;;;;;;5081570;28;20666;-60
2020/12/09 05:44:01;;;;;;;20.30;3.88;;;6.20;99.90;;;;;;5054962;28;20021;-60
2020/12/09 05:46:28;;;;;;;19.70;3.60;;;6.10;99.90;;;;;;5065388;28;20503;-60
2020/12/09 05:48:54;;;;;;;20.25;3.63;;;6.10;99.90;;;;;;5070832;28;20093;-60
2020/12/09 05:51:19;;;;;;;17.95;3.97;;;6.10;99.90;;;;;;5072165;28;20029;-61
2020/12/09 05:53:47;;;;;;;18.75;3.92;;;6.10;99.90;;;;;;5059847;28;20036;-61
2020/12/09 05:56:15;;;;;;;16.23;3.60;;;6.10;99.90;;;;;;5072495;28;20032;-60
2020/12/09 05:58:42;;;;;;;16.80;3.78;;;6.10;99.90;;;;;;5069153;28;20068;-60
2020/12/09 06:01:12;;;;;;;22.00;3.70;;;6.20;99.90;;;;;;5079845;28;20052;-60
2020/12/09 06:03:40;;;;;;;26.30;3.53;;;6.20;99.90;;;;;;5056891;28;20044;-60
2020/12/09 06:06:12;;;;;;;20.77;3.67;;;6.20;99.90;;;;;;5063728;28;20459;-61
2020/12/09 06:08:48;;;;;;;19.27;3.80;;;6.10;99.90;;;;;;5070277;28;20033;-61
2020/12/09 06:11:18;;;;;;;22.75;3.95;;;6.10;99.90;;;;;;5075989;28;20045;-61
2020/12/09 06:13:45;;;;;;;24.90;3.70;;;6.00;99.90;;;;;;5080546;28;20497;-60
2020/12/09 06:16:11;;;;;;;17.58;3.30;;;6.00;99.90;;;;;;5085062;28;20031;-62
2020/12/09 06:18:39;;;;;;;14.63;3.42;;;6.00;99.90;;;;;;5074434;28;20052;-59
2020/12/09 06:21:05;;;;;;;14.85;3.60;;;6.10;99.90;;;;;;5076746;28;20536;-61
2020/12/09 06:23:31;;;;;;;19.90;3.63;;;6.00;99.90;;;;;;5078676;28;20385;-59
2020/12/09 06:25:59;;;;;;;19.63;3.38;;;6.00;99.90;;;;;;5070962;28;20037;-61
2020/12/09 06:28:28;;;;;;;19.17;3.47;;;6.00;99.90;;;;;;5081105;28;20048;-61
2020/12/09 06:30:57;;;;;;;24.77;4.80;;;6.00;99.90;;;;;;5071102;28;20185;-60
2020/12/09 06:33:43;;;;;;;23.75;4.45;;;6.00;99.90;;;;;;5062425;28;20025;-60
2020/12/09 06:36:14;;;;;;;22.95;4.63;;;6.00;99.90;;;;;;5059245;28;20112;-60
2020/12/09 06:38:41;;;;;;;16.98;3.88;;;6.10;99.90;;;;;;5054319;28;20470;-60
2020/12/09 06:41:07;;;;;;;22.35;3.85;;;6.10;99.90;;;;;;5061084;28;20024;-60
2020/12/09 06:43:33;;;;;;;31.75;4.78;;;6.10;99.90;;;;;;5063099;28;20025;-60
2020/12/09 06:45:58;;;;;;;28.92;4.40;;;6.00;99.90;;;;;;5072955;28;20122;-61
2020/12/09 06:48:24;;;;;;;22.48;3.92;;;6.00;99.90;;;;;;5091964;28;20023;-61
2020/12/09 06:50:51;;;;;;;26.77;5.57;;;6.10;99.90;;;;;;5079536;28;20020;-61
2020/12/09 06:53:23;;;;;;;23.95;4.80;;;6.10;99.90;;;;;;5073937;28;20037;-61
2020/12/09 06:55:51;;;;;;;27.60;4.30;;;6.10;99.90;;;;;;5065917;28;20032;-60
2020/12/09 06:58:30;;;;;;;27.83;4.75;;;6.00;99.90;;;;;;5073546;28;20040;-61
2020/12/09 07:01:04;;;;;;;26.38;5.20;;;6.00;99.90;;;;;;5075104;28;20088;-60
2020/12/09 07:03:31;;;;;;;16.05;4.28;;;6.00;99.90;;;;;;5071676;28;20424;-61
2020/12/09 07:05:57;;;;;;;20.48;4.13;;;6.00;99.90;;;;;;5084288;28;20445;-61
2020/12/09 07:08:23;;;;;;;24.05;4.47;;;6.10;99.90;;;;;;5082576;28;20027;-59
2020/12/09 07:10:49;;;;;;;19.17;3.65;;;6.10;99.90;;;;;;5078564;28;20044;-61
2020/12/09 07:13:21;;;;;;;21.23;4.30;;;6.10;99.90;;;;;;5073382;28;20479;-59
2020/12/09 07:15:53;;;;;;;19.95;3.78;;;6.20;99.90;;;;;;5083895;28;20031;-60
2020/12/09 07:18:19;;;;;;;23.38;4.80;;;6.10;99.90;;;;;;5064328;28;20037;-60
2020/12/09 07:20:48;;;;;;;25.27;4.50;;;6.20;99.90;;;;;;5055563;28;20374;-60
2020/12/09 07:23:14;;;;;;;28.08;4.88;;;6.20;99.90;;;;;;5060456;28;20024;-59
2020/12/09 07:25:40;;;;;;;28.15;4.80;;;6.30;99.90;;;;;;5075905;28;20044;-60
2020/12/09 07:28:07;;;;;;;19.05;4.25;;;6.20;99.90;;;;;;5074036;28;20028;-60
2020/12/09 07:30:34;;;;;;;27.88;4.75;;;6.20;99.90;;;;;;5073869;28;20051;-61
2020/12/09 07:33:15;;;;;;;33.33;5.00;;;6.20;99.90;;;;;;5065054;28;20036;-60
2020/12/09 07:35:42;;;;;;;27.92;4.20;;;6.20;99.90;;;;;;5082504;28;20119;-61
2020/12/09 07:38:07;;;;;;;24.52;4.28;;;6.20;99.90;;;;;;5080579;28;20120;-61
2020/12/09 07:40:34;;;;;;;28.02;5.43;;;6.20;99.90;;;;;;5073244;28;20154;-60
2020/12/09 07:43:13;;;;;;;21.90;4.47;;;6.20;99.90;;;;;;5084541;28;20032;-60
2020/12/09 07:45:43;;;;;;;24.42;5.03;;;6.20;99.90;;;;;;5086530;28;20040;-61
2020/12/09 07:48:14;;;;;;;24.85;4.70;;;6.20;99.90;;;;;;5069611;28;20024;-60
2020/12/09 07:50:47;;;;;;;22.23;4.35;;;6.20;99.90;;;;;;5071357;28;20068;-59
2020/12/09 07:53:13;;;;;;;24.67;4.70;;;6.20;99.90;;;;;;5060287;28;20381;-61
2020/12/09 07:55:40;;;;;;;24.40;4.15;;;6.20;99.90;;;;;;5080645;28;20036;-60
2020/12/09 07:58:10;;;;;;;19.75;4.15;;;6.30;99.90;;;;;;5085936;28;20114;-60
2020/12/09 08:00:41;;;;;;;32.65;5.40;;;6.30;99.90;;;;;;5072779;28;20031;-61
2020/12/09 08:03:19;;;;;;;25.10;5.40;;;6.30;99.90;;;;;;5077985;28;20108;-61
2020/12/09 08:05:45;;;;;;;25.05;4.55;;;6.30;99.90;;;;;;5087320;28;20060;-61
2020/12/09 08:08:15;;;;;;;24.45;5.13;;;6.30;99.90;;;;;;5080253;28;20493;-61
2020/12/09 08:10:44;;;;;;;21.88;4.25;;;6.30;99.90;;;;;;5089496;28;20044;-61
2020/12/09 08:13:15;;;;;;;29.10;4.80;;;6.30;99.90;;;;;;5078552;28;20021;-59
2020/12/09 08:15:43;;;;;;;28.67;6.20;;;6.30;99.90;;;;;;5066624;28;20037;-61
2020/12/09 08:18:21;;;;;;;26.00;5.22;;;6.30;99.90;;;;;;5077416;28;20424;-61
2020/12/09 08:20:48;;;;;;;24.92;5.25;;;6.40;99.90;;;;;;5084248;28;20539;-62
2020/12/09 08:23:14;;;;;;;27.10;5.35;;;6.30;99.90;;;;;;5078069;28;20020;-60
2020/12/09 08:25:53;;;;;;;34.88;11.75;;;6.30;99.90;;;;;;5079946;28;20033;-61
2020/12/09 08:28:25;;;;;;;26.38;4.38;;;6.40;99.90;;;;;;5075992;28;20040;-61
2020/12/09 08:30:53;;;;;;;23.67;5.00;;;6.40;99.90;;;;;;5077488;28;20033;-61
2020/12/09 08:33:22;;;;;;;37.25;11.63;;;6.40;99.90;;;;;;5081168;28;20062;-61
2020/12/09 08:35:58;;;;;;;31.42;6.00;;;6.40;99.90;;;;;;5074542;28;20032;-62
2020/12/09 08:38:27;;;;;;;30.15;6.45;;;6.50;99.90;;;;;;5068799;28;20028;-60
2020/12/09 08:40:55;;;;;;;27.83;5.50;;;6.50;99.90;;;;;;5073092;28;20364;-60
2020/12/09 08:43:23;;;;;;;25.25;5.00;;;6.40;99.90;;;;;;5080395;28;20041;-61
2020/12/09 08:45:49;;;;;;;39.13;9.13;;;6.30;99.90;;;;;;5074774;28;20036;-61
2020/12/09 08:48:18;;;;;;;30.95;6.90;;;6.30;99.90;;;;;;5073329;28;20497;-61
2020/12/09 08:50:45;;;;;;;19.02;5.00;;;6.30;99.90;;;;;;5069420;28;20497;-60
2020/12/09 08:53:10;;;;;;;25.92;4.43;;;6.30;99.90;;;;;;5069491;28;20025;-60
2020/12/09 08:55:36;;;;;;;30.38;5.32;;;6.30;99.90;;;;;;5068459;28;20433;-61
2020/12/09 08:58:02;;;;;;;33.80;5.68;;;6.30;99.90;;;;;;5078935;28;20036;-61
2020/12/09 09:00:27;;;;;;;29.27;4.60;;;6.30;99.90;;;;;;5080759;28;20020;-61
2020/12/09 09:02:56;;;;;;;26.58;5.47;;;6.20;99.90;;;;;;5075334;28;20025;-60
2020/12/09 09:05:21;;;;;;;26.73;4.28;;;6.30;99.90;;;;;;5078139;28;20024;-60
2020/12/09 09:07:47;;;;;;;26.20;4.10;;;6.30;99.90;;;;;;5060929;28;20093;-60
2020/12/09 09:10:13;;;;;;;32.60;6.55;;;6.20;99.90;;;;;;5060700;28;20561;-59
2020/12/09 09:12:38;;;;;;;37.88;5.53;;;6.30;99.90;;;;;;5080231;28;20807;-59
2020/12/09 09:15:04;;;;;;;27.48;5.28;;;6.30;99.90;;;;;;5077327;28;20039;-64
2020/12/09 09:17:30;;;;;;;25.30;4.70;;;6.40;99.90;;;;;;5076888;28;20108;-62
2020/12/09 09:19:58;;;;;;;29.05;4.97;;;6.40;99.90;;;;;;5071916;28;20040;-63
2020/12/09 09:22:24;;;;;;;27.13;5.30;;;6.40;99.90;;;;;;5072771;28;20075;-61
2020/12/09 09:24:50;;;;;;;25.10;5.20;;;6.50;99.90;;;;;;5066967;28;20059;-62
2020/12/09 09:27:16;;;;;;;32.28;5.90;;;6.50;99.90;;;;;;5087543;28;20027;-61
2020/12/09 09:29:42;;;;;;;32.25;7.00;;;6.50;99.90;;;;;;5080337;28;20045;-62
2020/12/09 09:32:09;;;;;;;93.30;19.58;;;6.50;99.90;;;;;;5072484;28;20020;-62
2020/12/09 09:34:35;;;;;;;29.05;5.45;;;6.50;99.90;;;;;;5081537;28;20031;-62
2020/12/09 09:37:03;;;;;;;29.63;6.57;;;6.60;99.90;;;;;;5087608;28;21342;-62
2020/12/09 09:39:36;;;;;;;29.08;4.63;;;6.60;99.90;;;;;;5056156;28;20028;-61
2020/12/09 09:42:04;;;;;;;24.08;5.95;;;6.60;99.90;;;;;;5076598;28;20693;-62
2020/12/09 09:44:30;;;;;;;26.33;4.50;;;6.60;99.90;;;;;;5059663;28;20029;-62
2020/12/09 09:46:57;;;;;;;31.40;7.10;;;6.60;99.90;;;;;;5089332;28;20039;-62
2020/12/09 09:49:23;;;;;;;39.47;5.18;;;6.70;99.90;;;;;;5070033;28;20107;-62
2020/12/09 09:51:50;;;;;;;38.85;8.00;;;6.70;99.90;;;;;;5064364;28;20104;-62
2020/12/09 09:54:16;;;;;;;43.13;19.10;;;6.70;99.90;;;;;;5066292;28;20040;-62
2020/12/09 09:56:42;;;;;;;34.42;10.70;;;6.80;99.90;;;;;;5072061;28;20032;-62
2020/12/09 09:59:07;;;;;;;39.35;14.27;;;6.80;99.90;;;;;;5075639;28;20420;-64
2020/12/09 10:01:33;;;;;;;39.55;16.58;;;6.70;99.90;;;;;;5079451;28;20075;-63
2020/12/09 10:03:59;;;;;;;41.78;8.38;;;6.80;99.90;;;;;;5074417;28;20048;-62
2020/12/09 10:06:25;;;;;;;31.30;8.07;;;6.80;99.90;;;;;;5080506;28;20521;-62
2020/12/09 10:08:51;;;;;;;32.60;6.43;;;6.80;99.90;;;;;;5072881;28;20024;-63
2020/12/09 10:11:17;;;;;;;28.40;8.02;;;6.80;99.90;;;;;;5063190;28;20044;-62
2020/12/09 10:13:43;;;;;;;23.42;5.20;;;6.90;99.90;;;;;;5091051;28;20031;-63
2020/12/09 10:16:08;;;;;;;24.95;6.03;;;6.90;99.90;;;;;;5076045;28;20589;-61
2020/12/09 10:18:34;;;;;;;36.25;9.20;;;6.90;99.90;;;;;;5066308;28;20118;-62
2020/12/09 10:21:00;;;;;;;30.13;5.95;;;6.90;99.90;;;;;;5059633;28;20031;-62
2020/12/09 10:23:26;;;;;;;21.85;3.75;;;6.90;99.90;;;;;;5066184;28;20483;-64
2020/12/09 10:25:51;;;;;;;23.02;5.22;;;7.00;99.90;;;;;;5074816;28;20462;-63
2020/12/09 10:28:17;;;;;;;31.20;6.45;;;7.00;99.90;;;;;;5069269;28;20028;-61
2020/12/09 10:30:46;;;;;;;26.23;4.43;;;7.00;99.90;;;;;;5057165;28;20040;-62
2020/12/09 10:33:14;;;;;;;37.53;10.75;;;7.00;99.90;;;;;;5073231;28;20029;-61
2020/12/09 10:35:44;;;;;;;33.50;7.32;;;7.00;99.90;;;;;;5054936;28;20044;-62
2020/12/09 10:38:09;;;;;;;40.10;14.10;;;7.10;99.90;;;;;;5056904;28;20539;-60
2020/12/09 10:40:35;;;;;;;24.33;5.40;;;7.00;99.90;;;;;;5073747;28;20111;-60
2020/12/09 10:43:01;;;;;;;35.95;5.78;;;7.00;99.90;;;;;;5085740;28;20111;-62
2020/12/09 10:45:26;;;;;;;32.03;7.65;;;7.00;99.90;;;;;;5077935;28;20354;-62
2020/12/09 10:47:52;;;;;;;33.40;7.05;;;7.10;99.90;;;;;;5075261;28;20032;-61
2020/12/09 10:50:18;;;;;;;21.48;5.35;;;7.20;99.90;;;;;;5078784;28;20081;-64
2020/12/09 10:52:43;;;;;;;25.23;5.63;;;7.20;99.90;;;;;;5084321;28;20469;-63
2020/12/09 10:55:09;;;;;;;31.52;4.90;;;7.20;99.90;;;;;;5067224;28;20036;-61
2020/12/09 10:57:35;;;;;;;28.40;5.78;;;7.30;99.90;;;;;;5064342;28;20086;-66
2020/12/09 11:00:00;;;;;;;37.60;5.03;;;7.40;99.90;;;;;;5061146;28;20044;-61
2020/12/09 11:02:26;;;;;;;25.20;6.30;;;7.40;99.90;;;;;;5078195;28;20249;-63
2020/12/09 11:04:52;;;;;;;39.55;13.00;;;7.40;99.90;;;;;;5066394;28;20090;-61
2020/12/09 11:07:18;;;;;;;37.75;9.82;;;7.40;99.90;;;;;;5078533;28;20047;-61
2020/12/09 11:09:43;;;;;;;38.15;10.38;;;7.40;99.90;;;;;;5067645;28;20035;-61
2020/12/09 11:12:09;;;;;;;38.10;13.73;;;7.30;99.90;;;;;;5094402;28;20048;-61
2020/12/09 11:14:36;;;;;;;35.60;10.38;;;7.30;99.90;;;;;;5081197;28;20064;-60
2020/12/09 11:17:03;;;;;;;31.20;8.52;;;7.30;99.90;;;;;;5065929;28;20483;-64
2020/12/09 11:19:30;;;;;;;24.23;4.40;;;7.30;99.90;;;;;;5068166;28;20447;-60
2020/12/09 11:21:55;;;;;;;27.38;4.80;;;7.40;99.90;;;;;;5062527;28;20036;-62
2020/12/09 11:24:21;;;;;;;23.02;4.68;;;7.40;99.90;;;;;;5053168;28;20085;-61
2020/12/09 11:26:47;;;;;;;45.67;11.52;;;7.30;99.90;;;;;;5074243;28;20032;-61
2020/12/09 11:29:13;;;;;;;30.10;5.90;;;7.30;99.90;;;;;;5070551;28;20466;-64
2020/12/09 11:31:38;;;;;;;32.50;6.75;;;7.30;99.90;;;;;;5072993;28;20028;-60
2020/12/09 11:34:05;;;;;;;39.50;10.65;;;7.20;99.90;;;;;;5080597;28;20039;-63
2020/12/09 11:36:31;;;;;;;56.75;15.77;;;7.20;99.90;;;;;;5065800;28;20090;-61
2020/12/09 11:38:57;;;;;;;40.83;9.65;;;7.20;99.90;;;;;;5060394;28;20419;-63
2020/12/09 11:41:28;;;;;;;32.28;7.25;;;7.30;99.90;;;;;;5074490;28;20031;-63
2020/12/09 11:43:55;;;;;;;27.52;5.05;;;7.30;99.90;;;;;;5064445;28;20027;-62
2020/12/09 11:46:24;;;;;;;22.52;4.10;;;7.20;99.90;;;;;;5073121;28;20031;-63
2020/12/09 11:48:50;;;;;;;25.10;4.68;;;7.30;99.90;;;;;;5067974;28;20596;-65
2020/12/09 11:51:16;;;;;;;25.80;6.07;;;7.30;99.90;;;;;;5059093;28;20478;-62
2020/12/09 11:53:42;;;;;;;21.38;4.05;;;7.30;99.90;;;;;;5052620;28;20044;-63
2020/12/09 11:56:09;;;;;;;22.83;4.03;;;7.40;99.90;;;;;;5068499;28;20494;-62
2020/12/09 11:58:34;;;;;;;35.85;6.13;;;7.30;99.90;;;;;;5060771;28;20441;-62
2020/12/09 12:01:00;;;;;;;22.98;4.72;;;7.40;99.90;;;;;;5056195;28;20029;-62
2020/12/09 12:03:28;;;;;;;26.58;5.18;;;7.40;99.90;;;;;;5062932;28;20083;-64
2020/12/09 12:05:54;;;;;;;19.13;3.97;;;7.50;99.90;;;;;;5072125;28;20520;-63
2020/12/09 12:08:20;;;;;;;19.50;3.70;;;7.50;99.90;;;;;;5072491;28;20089;-63
2020/12/09 12:10:46;;;;;;;27.80;5.70;;;7.50;99.90;;;;;;5080940;28;20040;-61
2020/12/09 12:13:12;;;;;;;24.17;5.82;;;7.60;99.90;;;;;;5067661;28;20082;-64
2020/12/09 12:15:37;;;;;;;37.03;8.70;;;7.60;99.90;;;;;;5060174;28;20429;-62
2020/12/09 12:18:03;;;;;;;25.85;6.00;;;7.60;99.90;;;;;;5076554;28;20473;-62
2020/12/09 12:20:29;;;;;;;46.35;11.93;;;7.80;99.90;;;;;;5082649;28;20036;-61
2020/12/09 12:22:54;;;;;;;29.25;7.25;;;7.80;99.90;;;;;;5090070;28;20059;-62
2020/12/09 12:25:20;;;;;;;36.70;9.20;;;7.70;99.90;;;;;;5086893;28;20359;-62
2020/12/09 12:27:46;;;;;;;34.60;6.10;;;7.80;99.90;;;;;;5082942;28;20066;-61
2020/12/09 12:30:12;;;;;;;29.90;8.40;;;7.70;99.90;;;;;;5059331;28;20032;-62
2020/12/09 12:32:38;;;;;;;26.48;6.00;;;7.70;99.90;;;;;;5079185;28;20728;-65
2020/12/09 12:35:05;;;;;;;27.65;4.60;;;7.80;99.90;;;;;;5092152;28;20024;-60
2020/12/09 12:37:32;;;;;;;25.45;4.70;;;7.70;99.90;;;;;;5077445;28;20027;-62
2020/12/09 12:39:57;;;;;;;22.40;4.18;;;7.70;99.90;;;;;;5076475;28;20028;-63
2020/12/09 12:42:23;;;;;;;29.38;5.28;;;7.70;99.90;;;;;;5092821;28;20039;-62